Nocona, Texas
Current Conditions -  °F | °C
As of 8:10 PM on Sunday 25 Jan 2015 (Local Time) from K0F2 Reporting Station
Clear Clear  
Wind Chill: 44°   Ceiling: Unl
Heat Index: 47°   Visibility: 10mi
Dew Point: 25°   Wind: 6mph
Humidity: 42%   Direction: 280°W
Pressure: 30.14"   Gusts: NA
Location:  33.79°N, 97.73°W
Report Text: K0F2 260210Z AUTO 28005KT 10SM CLR 08/M04 A3014 RMK AO2 T00831040
Loading
Personal Weather Stations






























Interactive Weather Map New forecast layout! Learn more

10-Day Weather Forecast

Advertisements
Track Severe Weather on mobile